sensor_id;sensor_type;location;lat;lon;timestamp;temperature;humidity
1359;DHT22;673;48.098;14.422;2022-08-11T00:01:44;15.90;95.80
1359;DHT22;673;48.098;14.422;2022-08-11T00:04:13;15.90;95.80
1359;DHT22;673;48.098;14.422;2022-08-11T00:06:41;15.90;95.90
1359;DHT22;673;48.098;14.422;2022-08-11T00:09:11;15.90;95.60
1359;DHT22;673;48.098;14.422;2022-08-11T00:11:44;15.90;95.60
1359;DHT22;673;48.098;14.422;2022-08-11T00:14:16;15.80;96.00
1359;DHT22;673;48.098;14.422;2022-08-11T00:16:51;15.80;96.00
1359;DHT22;673;48.098;14.422;2022-08-11T00:19:21;15.80;96.30
1359;DHT22;673;48.098;14.422;2022-08-11T00:21:49;15.60;96.50
1359;DHT22;673;48.098;14.422;2022-08-11T00:24:17;15.50;97.00
1359;DHT22;673;48.098;14.422;2022-08-11T00:26:50;15.40;97.40
1359;DHT22;673;48.098;14.422;2022-08-11T00:29:18;15.30;97.90
1359;DHT22;673;48.098;14.422;2022-08-11T00:31:48;15.30;98.10
1359;DHT22;673;48.098;14.422;2022-08-11T00:34:19;15.40;97.90
1359;DHT22;673;48.098;14.422;2022-08-11T00:36:50;15.50;97.60
1359;DHT22;673;48.098;14.422;2022-08-11T00:39:20;15.70;97.40
1359;DHT22;673;48.098;14.422;2022-08-11T00:42:03;15.70;97.30
1359;DHT22;673;48.098;14.422;2022-08-11T00:44:39;15.70;97.30
1359;DHT22;673;48.098;14.422;2022-08-11T00:47:16;15.70;97.50
1359;DHT22;673;48.098;14.422;2022-08-11T00:49:57;15.60;97.50
1359;DHT22;673;48.098;14.422;2022-08-11T00:52:38;15.50;97.70
1359;DHT22;673;48.098;14.422;2022-08-11T00:55:35;15.50;98.00
1359;DHT22;673;48.098;14.422;2022-08-11T00:58:51;15.60;97.80
1359;DHT22;673;48.098;14.422;2022-08-11T01:01:33;15.60;97.60
1359;DHT22;673;48.098;14.422;2022-08-11T01:11:01;15.50;98.00
1359;DHT22;673;48.098;14.422;2022-08-11T01:20:00;15.50;97.80
1359;DHT22;673;48.098;14.422;2022-08-11T01:23:05;15.60;97.80
1359;DHT22;673;48.098;14.422;2022-08-11T01:28:57;15.50;97.80
1359;DHT22;673;48.098;14.422;2022-08-11T01:32:02;15.60;97.80
1359;DHT22;673;48.098;14.422;2022-08-11T01:35:16;15.60;97.40
1359;DHT22;673;48.098;14.422;2022-08-11T01:38:11;15.80;96.90
1359;DHT22;673;48.098;14.422;2022-08-11T01:46:55;15.70;96.90
1359;DHT22;673;48.098;14.422;2022-08-11T01:49:35;15.70;97.00
1359;DHT22;673;48.098;14.422;2022-08-11T01:52:16;15.70;96.90
1359;DHT22;673;48.098;14.422;2022-08-11T01:54:51;15.70;97.00
1359;DHT22;673;48.098;14.422;2022-08-11T01:57:27;15.70;96.80
1359;DHT22;673;48.098;14.422;2022-08-11T02:00:06;15.70;96.90
1359;DHT22;673;48.098;14.422;2022-08-11T02:02:44;15.70;96.90
1359;DHT22;673;48.098;14.422;2022-08-11T02:05:26;15.70;97.10
1359;DHT22;673;48.098;14.422;2022-08-11T02:08:07;15.70;96.80
1359;DHT22;673;48.098;14.422;2022-08-11T02:10:42;15.70;96.80
1359;DHT22;673;48.098;14.422;2022-08-11T02:13:35;15.70;96.70
1359;DHT22;673;48.098;14.422;2022-08-11T02:16:10;15.70;96.80
1359;DHT22;673;48.098;14.422;2022-08-11T02:18:41;15.70;96.90
1359;DHT22;673;48.098;14.422;2022-08-11T02:21:39;15.70;96.90
1359;DHT22;673;48.098;14.422;2022-08-11T02:24:30;15.80;96.50
1359;DHT22;673;48.098;14.422;2022-08-11T02:27:03;15.80;96.50
1359;DHT22;673;48.098;14.422;2022-08-11T02:29:42;15.80;96.60
1359;DHT22;673;48.098;14.422;2022-08-11T02:32:18;15.70;96.80
1359;DHT22;673;48.098;14.422;2022-08-11T02:35:11;15.60;97.00
1359;DHT22;673;48.098;14.422;2022-08-11T02:37:49;15.60;96.90
1359;DHT22;673;48.098;14.422;2022-08-11T02:40:29;15.60;96.90
1359;DHT22;673;48.098;14.422;2022-08-11T02:43:08;15.60;97.10
1359;DHT22;673;48.098;14.422;2022-08-11T02:45:48;15.60;96.90
1359;DHT22;673;48.098;14.422;2022-08-11T02:48:29;15.60;97.20
1359;DHT22;673;48.098;14.422;2022-08-11T02:51:26;15.60;96.80
1359;DHT22;673;48.098;14.422;2022-08-11T02:54:05;15.60;96.90
1359;DHT22;673;48.098;14.422;2022-08-11T02:56:44;15.60;96.90
1359;DHT22;673;48.098;14.422;2022-08-11T02:59:24;15.60;97.10
1359;DHT22;673;48.098;14.422;2022-08-11T03:02:15;15.50;97.20
1359;DHT22;673;48.098;14.422;2022-08-11T03:04:54;15.60;97.00
1359;DHT22;673;48.098;14.422;2022-08-11T03:07:29;15.60;97.00
1359;DHT22;673;48.098;14.422;2022-08-11T03:10:04;15.60;96.90
1359;DHT22;673;48.098;14.422;2022-08-11T03:12:44;15.60;96.80
1359;DHT22;673;48.098;14.422;2022-08-11T03:15:31;15.60;96.90
1359;DHT22;673;48.098;14.422;2022-08-11T03:18:28;15.60;97.20
1359;DHT22;673;48.098;14.422;2022-08-11T03:21:04;15.60;97.20
1359;DHT22;673;48.098;14.422;2022-08-11T03:23:36;15.50;97.20
1359;DHT22;673;48.098;14.422;2022-08-11T03:26:09;15.40;97.20
1359;DHT22;673;48.098;14.422;2022-08-11T03:28:44;15.30;97.60
1359;DHT22;673;48.098;14.422;2022-08-11T03:31:22;15.30;97.70
1359;DHT22;673;48.098;14.422;2022-08-11T03:33:54;15.30;97.70
1359;DHT22;673;48.098;14.422;2022-08-11T03:39:46;15.40;97.70
1359;DHT22;673;48.098;14.422;2022-08-11T03:42:21;15.40;97.50
1359;DHT22;673;48.098;14.422;2022-08-11T03:45:09;15.40;97.50
1359;DHT22;673;48.098;14.422;2022-08-11T03:48:01;15.30;97.80
1359;DHT22;673;48.098;14.422;2022-08-11T03:50:46;15.40;97.70
1359;DHT22;673;48.098;14.422;2022-08-11T03:53:38;15.50;97.40
1359;DHT22;673;48.098;14.422;2022-08-11T03:56:48;15.40;97.60
1359;DHT22;673;48.098;14.422;2022-08-11T04:02:41;15.30;98.00
1359;DHT22;673;48.098;14.422;2022-08-11T04:05:32;15.30;98.20
1359;DHT22;673;48.098;14.422;2022-08-11T04:08:28;15.30;98.30
1359;DHT22;673;48.098;14.422;2022-08-11T04:11:21;15.20;98.60
1359;DHT22;673;48.098;14.422;2022-08-11T04:14:34;15.20;98.60
1359;DHT22;673;48.098;14.422;2022-08-11T04:20:48;15.10;99.30
1359;DHT22;673;48.098;14.422;2022-08-11T04:27:11;15.10;99.20
1359;DHT22;673;48.098;14.422;2022-08-11T04:29:55;15.10;99.50
1359;DHT22;673;48.098;14.422;2022-08-11T04:35:41;15.20;99.00
1359;DHT22;673;48.098;14.422;2022-08-11T04:38:44;15.20;99.00
1359;DHT22;673;48.098;14.422;2022-08-11T04:41:54;15.20;99.10
1359;DHT22;673;48.098;14.422;2022-08-11T04:47:54;15.20;99.40
1359;DHT22;673;48.098;14.422;2022-08-11T04:51:18;15.30;99.20
1359;DHT22;673;48.098;14.422;2022-08-11T04:54:27;15.30;99.40
1359;DHT22;673;48.098;14.422;2022-08-11T04:57:20;15.30;99.90
1359;DHT22;673;48.098;14.422;2022-08-11T05:00:07;15.30;99.90
1359;DHT22;673;48.098;14.422;2022-08-11T05:03:28;15.30;99.80
1359;DHT22;673;48.098;14.422;2022-08-11T05:09:27;15.40;99.90
1359;DHT22;673;48.098;14.422;2022-08-11T05:12:09;15.40;99.70
1359;DHT22;673;48.098;14.422;2022-08-11T05:14:47;15.50;99.80
1359;DHT22;673;48.098;14.422;2022-08-11T05:17:38;15.70;99.20
1359;DHT22;673;48.098;14.422;2022-08-11T05:20:24;15.80;99.20
1359;DHT22;673;48.098;14.422;2022-08-11T05:23:12;15.90;99.00
1359;DHT22;673;48.098;14.422;2022-08-11T05:26:00;15.90;98.70
1359;DHT22;673;48.098;14.422;2022-08-11T05:28:52;16.20;98.90
1359;DHT22;673;48.098;14.422;2022-08-11T05:31:39;16.20;98.20
1359;DHT22;673;48.098;14.422;2022-08-11T05:34:30;16.30;97.90
1359;DHT22;673;48.098;14.422;2022-08-11T05:37:22;16.40;98.00
1359;DHT22;673;48.098;14.422;2022-08-11T05:39:53;16.40;97.60
1359;DHT22;673;48.098;14.422;2022-08-11T05:42:42;16.50;97.70
1359;DHT22;673;48.098;14.422;2022-08-11T05:45:33;16.50;98.00
1359;DHT22;673;48.098;14.422;2022-08-11T05:48:18;16.60;97.80
1359;DHT22;673;48.098;14.422;2022-08-11T05:51:04;16.60;98.00
1359;DHT22;673;48.098;14.422;2022-08-11T05:53:51;16.70;96.50
1359;DHT22;673;48.098;14.422;2022-08-11T05:56:43;16.70;97.30
1359;DHT22;673;48.098;14.422;2022-08-11T05:59:13;16.90;96.90
1359;DHT22;673;48.098;14.422;2022-08-11T06:01:42;16.90;97.00
1359;DHT22;673;48.098;14.422;2022-08-11T06:04:15;17.10;96.30
1359;DHT22;673;48.098;14.422;2022-08-11T06:06:48;17.20;96.00
1359;DHT22;673;48.098;14.422;2022-08-11T06:09:31;17.30;95.90
1359;DHT22;673;48.098;14.422;2022-08-11T06:12:02;17.40;96.20
1359;DHT22;673;48.098;14.422;2022-08-11T06:14:30;17.50;95.10
1359;DHT22;673;48.098;14.422;2022-08-11T06:16:59;17.70;95.60
1359;DHT22;673;48.098;14.422;2022-08-11T06:19:32;17.90;95.10
1359;DHT22;673;48.098;14.422;2022-08-11T06:22:01;18.20;94.10
1359;DHT22;673;48.098;14.422;2022-08-11T06:24:29;18.20;94.30
1359;DHT22;673;48.098;14.422;2022-08-11T06:26:59;18.30;94.20
1359;DHT22;673;48.098;14.422;2022-08-11T06:29:27;18.40;94.00
1359;DHT22;673;48.098;14.422;2022-08-11T06:31:57;18.60;93.80
1359;DHT22;673;48.098;14.422;2022-08-11T06:37:40;18.80;93.10
1359;DHT22;673;48.098;14.422;2022-08-11T06:40:15;18.90;92.10
1359;DHT22;673;48.098;14.422;2022-08-11T06:42:52;19.10;92.60
1359;DHT22;673;48.098;14.422;2022-08-11T06:45:32;19.20;91.90
1359;DHT22;673;48.098;14.422;2022-08-11T06:48:03;19.20;92.00
1359;DHT22;673;48.098;14.422;2022-08-11T06:50:31;19.30;91.40
1359;DHT22;673;48.098;14.422;2022-08-11T06:53:18;19.40;91.00
1359;DHT22;673;48.098;14.422;2022-08-11T06:55:47;19.50;90.90
1359;DHT22;673;48.098;14.422;2022-08-11T06:58:35;19.50;91.00
1359;DHT22;673;48.098;14.422;2022-08-11T07:01:33;19.60;90.70
1359;DHT22;673;48.098;14.422;2022-08-11T07:04:05;19.70;90.30
1359;DHT22;673;48.098;14.422;2022-08-11T07:06:41;19.70;90.60
1359;DHT22;673;48.098;14.422;2022-08-11T07:12:42;20.10;90.80
1359;DHT22;673;48.098;14.422;2022-08-11T07:15:32;20.20;89.50
1359;DHT22;673;48.098;14.422;2022-08-11T07:18:20;20.10;89.80
1359;DHT22;673;48.098;14.422;2022-08-11T07:21:09;20.20;89.40
1359;DHT22;673;48.098;14.422;2022-08-11T07:23:56;20.40;89.10
1359;DHT22;673;48.098;14.422;2022-08-11T07:26:47;20.70;89.40
1359;DHT22;673;48.098;14.422;2022-08-11T07:29:34;20.70;87.70
1359;DHT22;673;48.098;14.422;2022-08-11T07:32:12;20.70;88.10
1359;DHT22;673;48.098;14.422;2022-08-11T07:34:45;20.90;86.40
1359;DHT22;673;48.098;14.422;2022-08-11T07:37:15;21.10;87.30
1359;DHT22;673;48.098;14.422;2022-08-11T07:39:46;21.20;85.30
1359;DHT22;673;48.098;14.422;2022-08-11T07:42:17;21.40;85.20
1359;DHT22;673;48.098;14.422;2022-08-11T07:44:46;21.40;82.90
1359;DHT22;673;48.098;14.422;2022-08-11T07:47:34;21.40;82.90
1359;DHT22;673;48.098;14.422;2022-08-11T07:50:20;21.50;83.70
1359;DHT22;673;48.098;14.422;2022-08-11T07:53:05;21.50;83.90
1359;DHT22;673;48.098;14.422;2022-08-11T07:55:33;21.50;81.60
1359;DHT22;673;48.098;14.422;2022-08-11T07:58:00;21.30;80.80
1359;DHT22;673;48.098;14.422;2022-08-11T08:00:50;21.40;81.00
1359;DHT22;673;48.098;14.422;2022-08-11T08:03:38;21.40;81.00
1359;DHT22;673;48.098;14.422;2022-08-11T08:06:22;21.60;81.70
1359;DHT22;673;48.098;14.422;2022-08-11T08:09:08;21.70;80.90
1359;DHT22;673;48.098;14.422;2022-08-11T08:11:53;22.00;80.40
1359;DHT22;673;48.098;14.422;2022-08-11T08:14:38;21.90;80.20
1359;DHT22;673;48.098;14.422;2022-08-11T08:17:23;22.10;80.00
1359;DHT22;673;48.098;14.422;2022-08-11T08:20:12;22.40;79.30
1359;DHT22;673;48.098;14.422;2022-08-11T08:22:40;22.40;76.90
1359;DHT22;673;48.098;14.422;2022-08-11T08:25:08;22.50;79.00
1359;DHT22;673;48.098;14.422;2022-08-11T08:27:36;22.80;79.10
1359;DHT22;673;48.098;14.422;2022-08-11T08:30:05;23.10;81.20
1359;DHT22;673;48.098;14.422;2022-08-11T08:32:50;23.40;78.80
1359;DHT22;673;48.098;14.422;2022-08-11T08:35:22;23.30;75.00
1359;DHT22;673;48.098;14.422;2022-08-11T08:37:49;23.30;77.20
1359;DHT22;673;48.098;14.422;2022-08-11T08:40:17;23.50;74.50
1359;DHT22;673;48.098;14.422;2022-08-11T08:42:48;23.50;75.80
1359;DHT22;673;48.098;14.422;2022-08-11T08:45:16;23.40;74.30
1359;DHT22;673;48.098;14.422;2022-08-11T08:47:47;23.20;74.30
1359;DHT22;673;48.098;14.422;2022-08-11T08:50:21;23.20;72.30
1359;DHT22;673;48.098;14.422;2022-08-11T08:53:09;23.40;71.50
1359;DHT22;673;48.098;14.422;2022-08-11T08:55:37;23.50;71.60
1359;DHT22;673;48.098;14.422;2022-08-11T08:58:06;23.50;69.60
1359;DHT22;673;48.098;14.422;2022-08-11T09:00:38;23.60;71.10
1359;DHT22;673;48.098;14.422;2022-08-11T09:03:06;23.70;71.10
1359;DHT22;673;48.098;14.422;2022-08-11T09:05:35;23.50;69.90
1359;DHT22;673;48.098;14.422;2022-08-11T09:08:04;23.70;68.30
1359;DHT22;673;48.098;14.422;2022-08-11T09:10:31;23.60;64.50
1359;DHT22;673;48.098;14.422;2022-08-11T09:12:58;23.90;69.60
1359;DHT22;673;48.098;14.422;2022-08-11T09:15:26;24.10;66.70
1359;DHT22;673;48.098;14.422;2022-08-11T09:17:55;24.00;65.50
1359;DHT22;673;48.098;14.422;2022-08-11T09:20:33;24.10;68.40
1359;DHT22;673;48.098;14.422;2022-08-11T09:23:04;24.00;65.00
1359;DHT22;673;48.098;14.422;2022-08-11T09:25:50;24.10;67.60
1359;DHT22;673;48.098;14.422;2022-08-11T09:28:36;24.10;65.80
1359;DHT22;673;48.098;14.422;2022-08-11T09:31:05;24.20;65.30
1359;DHT22;673;48.098;14.422;2022-08-11T09:33:33;24.30;63.20
1359;DHT22;673;48.098;14.422;2022-08-11T09:36:01;24.20;64.00
1359;DHT22;673;48.098;14.422;2022-08-11T09:38:52;24.10;63.80
1359;DHT22;673;48.098;14.422;2022-08-11T09:41:38;24.00;64.60
1359;DHT22;673;48.098;14.422;2022-08-11T09:44:08;24.10;65.00
1359;DHT22;673;48.098;14.422;2022-08-11T09:46:54;24.20;65.30
1359;DHT22;673;48.098;14.422;2022-08-11T09:49:24;24.30;63.90
1359;DHT22;673;48.098;14.422;2022-08-11T09:51:53;24.50;62.90
1359;DHT22;673;48.098;14.422;2022-08-11T09:54:22;24.50;63.80
1359;DHT22;673;48.098;14.422;2022-08-11T09:56:51;24.70;63.80
1359;DHT22;673;48.098;14.422;2022-08-11T09:59:36;24.70;60.00
1359;DHT22;673;48.098;14.422;2022-08-11T10:02:05;24.60;59.90
1359;DHT22;673;48.098;14.422;2022-08-11T10:04:36;24.60;59.00
1359;DHT22;673;48.098;14.422;2022-08-11T10:07:04;24.70;58.10
1359;DHT22;673;48.098;14.422;2022-08-11T10:09:46;24.90;58.20
1359;DHT22;673;48.098;14.422;2022-08-11T10:12:22;25.00;59.10
1359;DHT22;673;48.098;14.422;2022-08-11T10:14:53;25.00;58.50
1359;DHT22;673;48.098;14.422;2022-08-11T10:17:42;25.20;58.20
1359;DHT22;673;48.098;14.422;2022-08-11T10:20:33;25.00;59.80
1359;DHT22;673;48.098;14.422;2022-08-11T10:23:01;24.90;59.10
1359;DHT22;673;48.098;14.422;2022-08-11T10:25:48;25.20;60.70
1359;DHT22;673;48.098;14.422;2022-08-11T10:28:34;25.30;57.50
1359;DHT22;673;48.098;14.422;2022-08-11T10:31:03;25.20;57.70
1359;DHT22;673;48.098;14.422;2022-08-11T10:34:03;25.20;57.60
1359;DHT22;673;48.098;14.422;2022-08-11T10:36:32;25.20;59.00
1359;DHT22;673;48.098;14.422;2022-08-11T10:39:00;25.40;59.00
1359;DHT22;673;48.098;14.422;2022-08-11T10:41:30;25.40;57.10
1359;DHT22;673;48.098;14.422;2022-08-11T10:44:15;25.40;57.70
1359;DHT22;673;48.098;14.422;2022-08-11T10:46:45;25.50;58.00
1359;DHT22;673;48.098;14.422;2022-08-11T10:49:30;25.60;58.10
1359;DHT22;673;48.098;14.422;2022-08-11T10:51:57;25.20;56.00
1359;DHT22;673;48.098;14.422;2022-08-11T10:54:42;25.00;56.80
1359;DHT22;673;48.098;14.422;2022-08-11T10:57:29;25.00;56.60
1359;DHT22;673;48.098;14.422;2022-08-11T11:00:14;25.30;59.00
1359;DHT22;673;48.098;14.422;2022-08-11T11:02:42;25.70;59.50
1359;DHT22;673;48.098;14.422;2022-08-11T11:05:14;25.80;55.80
1359;DHT22;673;48.098;14.422;2022-08-11T11:07:49;25.60;55.80
1359;DHT22;673;48.098;14.422;2022-08-11T11:10:18;26.10;56.50
1359;DHT22;673;48.098;14.422;2022-08-11T11:12:52;26.10;56.20
1359;DHT22;673;48.098;14.422;2022-08-11T11:15:41;25.90;56.00
1359;DHT22;673;48.098;14.422;2022-08-11T11:18:30;25.70;53.90
1359;DHT22;673;48.098;14.422;2022-08-11T11:21:04;25.70;54.60
1359;DHT22;673;48.098;14.422;2022-08-11T11:23:35;26.00;56.20
1359;DHT22;673;48.098;14.422;2022-08-11T11:26:26;26.30;57.60
1359;DHT22;673;48.098;14.422;2022-08-11T11:29:32;26.40;54.90
1359;DHT22;673;48.098;14.422;2022-08-11T11:32:14;26.30;54.00
1359;DHT22;673;48.098;14.422;2022-08-11T11:34:56;26.00;54.10
1359;DHT22;673;48.098;14.422;2022-08-11T11:37:29;26.10;55.30
1359;DHT22;673;48.098;14.422;2022-08-11T11:39:58;26.20;54.90
1359;DHT22;673;48.098;14.422;2022-08-11T11:42:26;26.10;53.40
1359;DHT22;673;48.098;14.422;2022-08-11T11:44:56;25.80;54.10
1359;DHT22;673;48.098;14.422;2022-08-11T11:47:24;26.00;53.70
1359;DHT22;673;48.098;14.422;2022-08-11T11:49:53;25.90;53.40
1359;DHT22;673;48.098;14.422;2022-08-11T11:52:21;26.20;54.50
1359;DHT22;673;48.098;14.422;2022-08-11T11:54:51;26.40;53.40
1359;DHT22;673;48.098;14.422;2022-08-11T11:57:20;26.40;54.10
1359;DHT22;673;48.098;14.422;2022-08-11T12:00:09;26.30;52.10
1359;DHT22;673;48.098;14.422;2022-08-11T12:02:54;26.10;52.20
1359;DHT22;673;48.098;14.422;2022-08-11T12:05:23;26.20;53.40
1359;DHT22;673;48.098;14.422;2022-08-11T12:07:51;26.60;52.80
1359;DHT22;673;48.098;14.422;2022-08-11T12:10:35;26.90;52.40
1359;DHT22;673;48.098;14.422;2022-08-11T12:13:02;26.60;52.10
1359;DHT22;673;48.098;14.422;2022-08-11T12:15:51;26.40;52.00
1359;DHT22;673;48.098;14.422;2022-08-11T12:18:19;26.60;51.20
1359;DHT22;673;48.098;14.422;2022-08-11T12:20:46;26.70;51.00
1359;DHT22;673;48.098;14.422;2022-08-11T12:23:14;26.60;48.60
1359;DHT22;673;48.098;14.422;2022-08-11T12:25:59;26.60;50.50
1359;DHT22;673;48.098;14.422;2022-08-11T12:28:44;26.50;51.30
1359;DHT22;673;48.098;14.422;2022-08-11T12:31:14;26.60;50.70
1359;DHT22;673;48.098;14.422;2022-08-11T12:33:41;26.60;48.60
1359;DHT22;673;48.098;14.422;2022-08-11T12:36:09;26.30;49.70
1359;DHT22;673;48.098;14.422;2022-08-11T12:38:43;26.40;49.00
1359;DHT22;673;48.098;14.422;2022-08-11T12:41:13;26.90;52.90
1359;DHT22;673;48.098;14.422;2022-08-11T12:43:59;26.70;48.80
1359;DHT22;673;48.098;14.422;2022-08-11T12:46:47;26.90;52.40
1359;DHT22;673;48.098;14.422;2022-08-11T12:49:18;27.20;49.00
1359;DHT22;673;48.098;14.422;2022-08-11T12:52:06;26.80;48.30
1359;DHT22;673;48.098;14.422;2022-08-11T12:54:39;26.70;48.80
1359;DHT22;673;48.098;14.422;2022-08-11T12:57:11;26.70;47.50
1359;DHT22;673;48.098;14.422;2022-08-11T12:59:56;26.80;48.30
1359;DHT22;673;48.098;14.422;2022-08-11T13:02:45;27.10;50.00
1359;DHT22;673;48.098;14.422;2022-08-11T13:05:31;27.00;49.00
1359;DHT22;673;48.098;14.422;2022-08-11T13:08:00;26.90;48.30
1359;DHT22;673;48.098;14.422;2022-08-11T13:10:28;27.20;49.40
1359;DHT22;673;48.098;14.422;2022-08-11T13:13:17;27.00;48.40
1359;DHT22;673;48.098;14.422;2022-08-11T13:15:46;27.20;48.20
1359;DHT22;673;48.098;14.422;2022-08-11T13:18:17;27.10;47.10
1359;DHT22;673;48.098;14.422;2022-08-11T13:20:48;26.60;46.80
1359;DHT22;673;48.098;14.422;2022-08-11T13:23:15;26.70;48.90
1359;DHT22;673;48.098;14.422;2022-08-11T13:25:42;27.10;49.70
1359;DHT22;673;48.098;14.422;2022-08-11T13:28:10;27.10;47.70
1359;DHT22;673;48.098;14.422;2022-08-11T13:30:38;26.90;47.40
1359;DHT22;673;48.098;14.422;2022-08-11T13:33:25;27.20;48.90
1359;DHT22;673;48.098;14.422;2022-08-11T13:35:53;27.50;47.80
1359;DHT22;673;48.098;14.422;2022-08-11T13:38:23;27.60;48.30
1359;DHT22;673;48.098;14.422;2022-08-11T13:40:52;27.30;47.80
1359;DHT22;673;48.098;14.422;2022-08-11T13:43:21;27.10;47.80
1359;DHT22;673;48.098;14.422;2022-08-11T13:45:49;27.00;48.40
1359;DHT22;673;48.098;14.422;2022-08-11T13:48:39;26.80;47.00
1359;DHT22;673;48.098;14.422;2022-08-11T13:51:08;27.00;47.30
1359;DHT22;673;48.098;14.422;2022-08-11T13:53:53;27.00;48.00
1359;DHT22;673;48.098;14.422;2022-08-11T13:56:21;27.20;47.40
1359;DHT22;673;48.098;14.422;2022-08-11T13:58:49;26.90;47.30
1359;DHT22;673;48.098;14.422;2022-08-11T14:01:18;26.90;45.20
1359;DHT22;673;48.098;14.422;2022-08-11T14:03:48;26.80;45.20
1359;DHT22;673;48.098;14.422;2022-08-11T14:06:18;26.90;46.40
1359;DHT22;673;48.098;14.422;2022-08-11T14:08:54;27.00;43.00
1359;DHT22;673;48.098;14.422;2022-08-11T14:11:22;26.90;45.40
1359;DHT22;673;48.098;14.422;2022-08-11T14:14:08;26.90;46.60
1359;DHT22;673;48.098;14.422;2022-08-11T14:16:41;26.70;47.00
1359;DHT22;673;48.098;14.422;2022-08-11T14:19:12;26.70;47.30
1359;DHT22;673;48.098;14.422;2022-08-11T14:21:42;26.80;47.80
1359;DHT22;673;48.098;14.422;2022-08-11T14:24:27;26.80;47.60
1359;DHT22;673;48.098;14.422;2022-08-11T14:26:55;26.80;46.30
1359;DHT22;673;48.098;14.422;2022-08-11T14:29:24;26.90;45.10
1359;DHT22;673;48.098;14.422;2022-08-11T14:31:54;27.30;47.40
1359;DHT22;673;48.098;14.422;2022-08-11T14:34:25;27.50;45.80
1359;DHT22;673;48.098;14.422;2022-08-11T14:36:57;27.40;46.50
1359;DHT22;673;48.098;14.422;2022-08-11T14:39:27;27.20;45.60
1359;DHT22;673;48.098;14.422;2022-08-11T14:42:01;27.30;45.70
1359;DHT22;673;48.098;14.422;2022-08-11T14:44:47;27.20;45.10
1359;DHT22;673;48.098;14.422;2022-08-11T14:47:46;27.20;45.90
1359;DHT22;673;48.098;14.422;2022-08-11T14:50:17;27.10;45.40
1359;DHT22;673;48.098;14.422;2022-08-11T14:52:49;26.90;44.20
1359;DHT22;673;48.098;14.422;2022-08-11T14:55:20;27.00;45.40
1359;DHT22;673;48.098;14.422;2022-08-11T14:58:07;27.10;47.60
1359;DHT22;673;48.098;14.422;2022-08-11T15:00:35;27.30;45.80
1359;DHT22;673;48.098;14.422;2022-08-11T15:03:04;27.20;45.60
1359;DHT22;673;48.098;14.422;2022-08-11T15:05:39;27.30;46.00
1359;DHT22;673;48.098;14.422;2022-08-11T15:08:08;27.20;46.60
1359;DHT22;673;48.098;14.422;2022-08-11T15:10:35;27.20;46.30
1359;DHT22;673;48.098;14.422;2022-08-11T15:13:03;27.20;46.10
1359;DHT22;673;48.098;14.422;2022-08-11T15:15:32;27.40;46.70
1359;DHT22;673;48.098;14.422;2022-08-11T15:18:18;27.50;45.10
1359;DHT22;673;48.098;14.422;2022-08-11T15:20:48;27.40;44.30
1359;DHT22;673;48.098;14.422;2022-08-11T15:23:32;27.20;45.00
1359;DHT22;673;48.098;14.422;2022-08-11T15:26:21;27.40;44.70
1359;DHT22;673;48.098;14.422;2022-08-11T15:29:13;27.50;45.60
1359;DHT22;673;48.098;14.422;2022-08-11T15:31:59;27.20;45.70
1359;DHT22;673;48.098;14.422;2022-08-11T15:34:45;27.20;44.20
1359;DHT22;673;48.098;14.422;2022-08-11T15:37:32;27.00;45.50
1359;DHT22;673;48.098;14.422;2022-08-11T15:40:05;27.00;46.00
1359;DHT22;673;48.098;14.422;2022-08-11T15:42:57;26.90;45.70
1359;DHT22;673;48.098;14.422;2022-08-11T15:45:44;27.20;44.80
1359;DHT22;673;48.098;14.422;2022-08-11T15:48:23;28.00;43.70
1359;DHT22;673;48.098;14.422;2022-08-11T15:50:55;28.50;42.80
1359;DHT22;673;48.098;14.422;2022-08-11T15:53:27;28.20;42.80
1359;DHT22;673;48.098;14.422;2022-08-11T15:55:58;27.40;43.10
1359;DHT22;673;48.098;14.422;2022-08-11T15:58:31;27.20;44.40
1359;DHT22;673;48.098;14.422;2022-08-11T16:01:18;27.00;43.60
1359;DHT22;673;48.098;14.422;2022-08-11T16:04:06;27.50;44.00
1359;DHT22;673;48.098;14.422;2022-08-11T16:06:40;28.20;43.00
1359;DHT22;673;48.098;14.422;2022-08-11T16:09:11;28.50;41.90
1359;DHT22;673;48.098;14.422;2022-08-11T16:11:40;28.10;42.10
1359;DHT22;673;48.098;14.422;2022-08-11T16:14:10;27.70;42.50
1359;DHT22;673;48.098;14.422;2022-08-11T16:16:56;27.20;43.40
1359;DHT22;673;48.098;14.422;2022-08-11T16:19:26;27.00;44.30
1359;DHT22;673;48.098;14.422;2022-08-11T16:21:54;26.80;45.40
1359;DHT22;673;48.098;14.422;2022-08-11T16:24:24;26.40;47.20
1359;DHT22;673;48.098;14.422;2022-08-11T16:26:52;26.40;46.10
1359;DHT22;673;48.098;14.422;2022-08-11T16:29:22;26.10;45.70
1359;DHT22;673;48.098;14.422;2022-08-11T16:31:51;25.90;46.30
1359;DHT22;673;48.098;14.422;2022-08-11T16:34:33;25.80;47.20
1359;DHT22;673;48.098;14.422;2022-08-11T16:37:18;25.80;47.40
1359;DHT22;673;48.098;14.422;2022-08-11T16:40:07;25.60;47.30
1359;DHT22;673;48.098;14.422;2022-08-11T16:42:35;25.70;47.50
1359;DHT22;673;48.098;14.422;2022-08-11T16:45:19;25.50;47.50
1359;DHT22;673;48.098;14.422;2022-08-11T16:48:05;25.10;47.70
1359;DHT22;673;48.098;14.422;2022-08-11T16:50:34;25.00;48.60
1359;DHT22;673;48.098;14.422;2022-08-11T16:53:02;24.70;48.80
1359;DHT22;673;48.098;14.422;2022-08-11T16:55:30;24.50;48.10
1359;DHT22;673;48.098;14.422;2022-08-11T16:57:59;24.50;49.20
1359;DHT22;673;48.098;14.422;2022-08-11T17:00:43;24.40;49.70
1359;DHT22;673;48.098;14.422;2022-08-11T17:03:12;24.20;49.70
1359;DHT22;673;48.098;14.422;2022-08-11T17:05:57;24.20;49.70
1359;DHT22;673;48.098;14.422;2022-08-11T17:08:46;24.10;50.80
1359;DHT22;673;48.098;14.422;2022-08-11T17:11:35;24.00;50.60
1359;DHT22;673;48.098;14.422;2022-08-11T17:14:23;23.90;49.90
1359;DHT22;673;48.098;14.422;2022-08-11T17:16:51;23.80;50.30
1359;DHT22;673;48.098;14.422;2022-08-11T17:19:21;23.60;50.60
1359;DHT22;673;48.098;14.422;2022-08-11T17:21:52;23.60;51.10
1359;DHT22;673;48.098;14.422;2022-08-11T17:24:39;23.50;51.30
1359;DHT22;673;48.098;14.422;2022-08-11T17:27:09;23.30;51.90
1359;DHT22;673;48.098;14.422;2022-08-11T17:29:43;23.20;51.90
1359;DHT22;673;48.098;14.422;2022-08-11T17:32:20;23.10;52.30
1359;DHT22;673;48.098;14.422;2022-08-11T17:35:09;23.00;52.30
1359;DHT22;673;48.098;14.422;2022-08-11T17:37:59;22.90;52.90
1359;DHT22;673;48.098;14.422;2022-08-11T17:40:27;22.80;53.00
1359;DHT22;673;48.098;14.422;2022-08-11T17:42:57;22.90;53.50
1359;DHT22;673;48.098;14.422;2022-08-11T17:45:44;22.80;53.20
1359;DHT22;673;48.098;14.422;2022-08-11T17:48:32;22.70;53.40
1359;DHT22;673;48.098;14.422;2022-08-11T17:51:04;22.60;53.70
1359;DHT22;673;48.098;14.422;2022-08-11T17:53:41;22.50;54.00
1359;DHT22;673;48.098;14.422;2022-08-11T17:56:28;22.40;54.10
1359;DHT22;673;48.098;14.422;2022-08-11T17:59:15;22.30;54.30
1359;DHT22;673;48.098;14.422;2022-08-11T18:02:02;22.20;54.50
1359;DHT22;673;48.098;14.422;2022-08-11T18:04:47;22.10;54.80
1359;DHT22;673;48.098;14.422;2022-08-11T18:07:15;22.00;55.20